^^
Your Local Weather - Clay, NY Station Historical Data
Daily Summary for November 10, 2017 Units:  English    Metric   Both
« Previous Day
Next Day »
Daily Weekly Monthly Yearly Custom
  High: Low: Average:
Temperature: 34.4 °F 21.9 °F 25.2 °F
Dew Point: 31.5 °F 8.1 °F 15.2 °F
Humidity: 90% 53% 66%
Wind Speed: 9.0mph 0.0mph 4.1mph
Wind Gust: 17.0mph - -
Wind- - WNW
Pressure: 30.53 in 29.94 in -
Precipitation: 0.00 in    
Historical Graphs
 
 
Tabular Data for November 10, 2017
Time Temperature Dew Point Pressure Wind Wind Speed Wind Gust Humidity Rainfall Rate (Hourly) solar
00:00 34.4 °F 31.5 °F 29.94 in WNW 4.0 mph 8.0 mph 89% 0.00 in 0 W/m2
00:06 33.9 °F 30.7 °F 29.95 in WNW 6.0 mph 8.0 mph 88% 0.00 in 0 W/m2
00:12 33.6 °F 30.4 °F 29.95 in WNW 6.0 mph 7.0 mph 88% 0.00 in 0 W/m2
00:18 33.6 °F 30.4 °F 29.95 in NW 5.0 mph 7.0 mph 88% 0.00 in 0 W/m2
00:24 33.4 °F 30.2 °F 29.96 in NNW 4.0 mph 6.0 mph 88% 0.00 in 0 W/m2
00:30 33.2 °F 30.0 °F 29.97 in WNW 5.0 mph 5.0 mph 88% 0.00 in 0 W/m2
00:36 33.1 °F 29.7 °F 29.97 in West 5.0 mph 7.0 mph 87% 0.00 in 0 W/m2
00:42 32.9 °F 29.5 °F 29.97 in WNW 5.0 mph 7.0 mph 87% 0.00 in 0 W/m2
00:48 32.7 °F 29.0 °F 29.98 in NW 6.0 mph 8.0 mph 86% 0.00 in 0 W/m2
00:54 32.6 °F 29.2 °F 29.98 in WNW 6.0 mph 6.0 mph 87% 0.00 in 0 W/m2
01:00 32.5 °F 29.1 °F 29.99 in West 4.0 mph 4.0 mph 87% 0.00 in 0 W/m2
01:06 32.3 °F 28.9 °F 29.98 in WNW 4.0 mph 7.0 mph 87% 0.00 in 0 W/m2
01:12 32.4 °F 28.1 °F 29.98 in West 5.0 mph 5.0 mph 84% 0.00 in 0 W/m2
01:18 32.5 °F 27.3 °F 29.99 in WNW 5.0 mph 6.0 mph 81% 0.00 in 0 W/m2
01:24 32.5 °F 26.7 °F 29.99 in West 5.0 mph 9.0 mph 79% 0.00 in 0 W/m2
01:30 32.5 °F 25.8 °F 29.99 in West 6.0 mph 6.0 mph 76% 0.00 in 0 W/m2
01:36 32.5 °F 25.1 °F 29.99 in West 7.0 mph 11.0 mph 74% 0.00 in 0 W/m2
01:42 32.3 °F 24.3 °F 30.00 in WSW 6.0 mph 6.0 mph 72% 0.00 in 0 W/m2
01:48 32.2 °F 24.2 °F 30.00 in West 5.0 mph 6.0 mph 72% 0.00 in 0 W/m2
01:50 32.1 °F 24.1 °F 30.00 in WNW 5.0 mph 5.0 mph 72% 0.00 in 0 W/m2
01:56 31.7 °F 24.4 °F 30.02 in NW 6.0 mph 8.0 mph 74% 0.00 in 0 W/m2
02:02 30.3 °F 25.2 °F 30.03 in West 5.0 mph 8.0 mph 81% 0.00 in 0 W/m2
02:08 29.4 °F 25.4 °F 30.03 in West 5.0 mph 8.0 mph 85% 0.00 in 0 W/m2
02:14 28.9 °F 25.5 °F 30.04 in West 5.0 mph 7.0 mph 87% 0.00 in 0 W/m2
02:20 28.7 °F 25.9 °F 30.04 in WNW 4.0 mph 5.0 mph 89% 0.00 in 0 W/m2
02:26 28.5 °F 25.7 °F 30.04 in WNW 5.0 mph 6.0 mph 89% 0.00 in 0 W/m2
02:32 28.4 °F 25.8 °F 30.05 in West 4.0 mph 6.0 mph 90% 0.00 in 0 W/m2
02:38 28.4 °F 25.8 °F 30.05 in West 3.0 mph 6.0 mph 90% 0.00 in 0 W/m2
02:44 28.3 °F 25.7 °F 30.05 in WNW 3.0 mph 5.0 mph 90% 0.00 in 0 W/m2
02:50 28.2 °F 25.6 °F 30.05 in WNW 3.0 mph 4.0 mph 90% 0.00 in 0 W/m2
02:56 28.0 °F 25.4 °F 30.05 in WNW 3.0 mph 5.0 mph 90% 0.00 in 0 W/m2
03:02 28.0 °F 24.6 °F 30.06 in West 4.0 mph 5.0 mph 87% 0.00 in 0 W/m2
03:08 27.9 °F 22.8 °F 30.07 in WNW 5.0 mph 5.0 mph 81% 0.00 in 0 W/m2
03:14 27.8 °F 22.1 °F 30.08 in NW 6.0 mph 6.0 mph 79% 0.00 in 0 W/m2
03:20 27.9 °F 21.6 °F 30.08 in NW 5.0 mph 5.0 mph 77% 0.00 in 0 W/m2
03:26 28.0 °F 21.1 °F 30.08 in NW 4.0 mph 6.0 mph 75% 0.00 in 0 W/m2
03:32 28.0 °F 20.5 °F 30.08 in NW 4.0 mph 4.0 mph 73% 0.00 in 0 W/m2
03:38 27.9 °F 20.0 °F 30.09 in North 5.0 mph 11.0 mph 72% 0.00 in 0 W/m2
03:44 27.8 °F 19.6 °F 30.09 in WNW 5.0 mph 5.0 mph 71% 0.00 in 0 W/m2
03:50 27.9 °F 20.0 °F 30.10 in WNW 4.0 mph 6.0 mph 72% 0.00 in 0 W/m2
03:56 27.6 °F 20.1 °F 30.10 in West 5.0 mph 7.0 mph 73% 0.00 in 0 W/m2
04:02 26.9 °F 20.0 °F 30.11 in NW 7.0 mph 10.0 mph 75% 0.00 in 0 W/m2
04:08 26.3 °F 20.7 °F 30.12 in West 7.0 mph 10.0 mph 79% 0.00 in 0 W/m2
04:14 25.7 °F 20.7 °F 30.12 in NNW 7.0 mph 8.0 mph 81% 0.00 in 0 W/m2
04:20 25.4 °F 21.0 °F 30.12 in West 6.0 mph 6.0 mph 83% 0.00 in 0 W/m2
04:26 25.5 °F 21.3 °F 30.13 in NW 4.0 mph 8.0 mph 84% 0.00 in 0 W/m2
04:32 25.7 °F 21.3 °F 30.13 in WNW 3.0 mph 7.0 mph 83% 0.00 in 0 W/m2
04:38 26.1 °F 21.1 °F 30.14 in WNW 4.0 mph 7.0 mph 81% 0.00 in 0 W/m2
04:44 26.3 °F 20.7 °F 30.13 in NW 6.0 mph 6.0 mph 79% 0.00 in 0 W/m2
04:50 26.5 °F 20.3 °F 30.14 in NW 6.0 mph 8.0 mph 77% 0.00 in 0 W/m2
04:56 26.7 °F 20.1 °F 30.14 in NW 4.0 mph 8.0 mph 76% 0.00 in 0 W/m2
05:02 26.7 °F 20.5 °F 30.15 in NNW 3.0 mph 4.0 mph 77% 0.00 in 0 W/m2
05:08 26.4 °F 19.9 °F 30.16 in WNW 4.0 mph 7.0 mph 76% 0.00 in 0 W/m2
05:14 25.9 °F 19.4 °F 30.16 in West 5.0 mph 9.0 mph 76% 0.00 in 0 W/m2
05:20 25.8 °F 18.7 °F 30.16 in WNW 7.0 mph 7.0 mph 74% 0.00 in 0 W/m2
05:26 25.8 °F 16.3 °F 30.17 in WNW 6.0 mph 14.0 mph 67% 0.00 in 0 W/m2
05:32 25.8 °F 15.6 °F 30.17 in WNW 7.0 mph 8.0 mph 65% 0.00 in 0 W/m2
05:38 25.7 °F 15.6 °F 30.18 in WSW 7.0 mph 9.0 mph 65% 0.00 in 0 W/m2
05:44 25.6 °F 15.8 °F 30.18 in NW 6.0 mph 14.0 mph 66% 0.00 in 0 W/m2
05:50 25.4 °F 15.6 °F 30.19 in NW 5.0 mph 5.0 mph 66% 0.00 in 0 W/m2
05:56 25.3 °F 15.2 °F 30.19 in NW 6.0 mph 7.0 mph 65% 0.00 in 0 W/m2
06:02 25.3 °F 15.2 °F 30.19 in NW 6.0 mph 9.0 mph 65% 0.00 in 0 W/m2
06:08 25.2 °F 15.8 °F 30.19 in NW 5.0 mph 9.0 mph 67% 0.00 in 0 W/m2
06:14 24.9 °F 15.5 °F 30.19 in NNW 4.0 mph 5.0 mph 67% 0.00 in 0 W/m2
06:20 24.9 °F 15.1 °F 30.20 in WNW 5.0 mph 5.0 mph 66% 0.00 in 0 W/m2
06:26 24.9 °F 14.8 °F 30.20 in NW 5.0 mph 10.0 mph 65% 0.00 in 0 W/m2
06:32 24.9 °F 14.4 °F 30.21 in NW 5.0 mph 8.0 mph 64% 0.00 in 0 W/m2
06:38 24.8 °F 14.3 °F 30.22 in WNW 6.0 mph 8.0 mph 64% 0.00 in 0 W/m2
06:44 24.7 °F 14.2 °F 30.22 in WSW 5.0 mph 7.0 mph 64% 0.00 in 0 W/m2
06:50 24.5 °F 14.4 °F 30.22 in NW 5.0 mph 5.0 mph 65% 0.00 in 0 W/m2
06:56 24.2 °F 14.1 °F 30.22 in WNW 5.0 mph 7.0 mph 65% 0.00 in 0 W/m2
07:02 24.0 °F 14.3 °F 30.23 in NW 6.0 mph 6.0 mph 66% 0.00 in 5 W/m2
07:08 24.0 °F 14.3 °F 30.23 in WNW 5.0 mph 7.0 mph 66% 0.00 in 7 W/m2
07:14 24.1 °F 14.0 °F 30.23 in NW 5.0 mph 6.0 mph 65% 0.00 in 11 W/m2
07:20 24.1 °F 12.9 °F 30.24 in NW 5.0 mph 5.0 mph 62% 0.00 in 18 W/m2
07:26 24.1 °F 12.6 °F 30.24 in WNW 7.0 mph 15.0 mph 61% 0.00 in 21 W/m2
07:32 24.1 °F 12.6 °F 30.25 in WNW 6.0 mph 7.0 mph 61% 0.00 in 33 W/m2
07:38 24.0 °F 12.5 °F 30.25 in WNW 5.0 mph 7.0 mph 61% 0.00 in 37 W/m2
07:44 24.0 °F 12.9 °F 30.25 in WNW 5.0 mph 8.0 mph 62% 0.00 in 30 W/m2
07:50 24.0 °F 12.5 °F 30.26 in West 6.0 mph 6.0 mph 61% 0.00 in 32 W/m2
07:56 24.0 °F 11.7 °F 30.26 in NW 6.0 mph 7.0 mph 59% 0.00 in 51 W/m2
08:02 24.0 °F 12.1 °F 30.27 in NW 5.0 mph 12.0 mph 60% 0.00 in 47 W/m2
08:08 23.9 °F 12.0 °F 30.28 in NW 6.0 mph 12.0 mph 60% 0.00 in 60 W/m2
08:14 23.4 °F 12.6 °F 30.27 in WNW 7.0 mph 10.0 mph 63% 0.00 in 46 W/m2
08:20 22.9 °F 11.4 °F 30.28 in WNW 7.0 mph 7.0 mph 61% 0.00 in 65 W/m2
08:26 22.9 °F 10.7 °F 30.28 in NW 6.0 mph 7.0 mph 59% 0.00 in 63 W/m2
08:32 22.9 °F 10.3 °F 30.29 in North 6.0 mph 6.0 mph 58% 0.00 in 88 W/m2
08:38 23.7 °F 10.7 °F 30.29 in North 5.0 mph 14.0 mph 57% 0.00 in 241 W/m2
08:44 23.4 °F 9.2 °F 30.30 in NW 7.0 mph 11.0 mph 54% 0.00 in 204 W/m2
08:50 23.6 °F 10.2 °F 30.30 in NW 8.0 mph 8.0 mph 56% 0.00 in 200 W/m2
08:56 22.9 °F 11.1 °F 30.31 in North 9.0 mph 9.0 mph 60% 0.00 in 116 W/m2
09:02 22.6 °F 10.4 °F 30.32 in West 8.0 mph 15.0 mph 59% 0.00 in 297 W/m2
09:08 22.7 °F 10.1 °F 30.33 in NNW 7.0 mph 15.0 mph 58% 0.00 in 271 W/m2
09:14 22.4 °F 10.2 °F 30.33 in WNW 7.0 mph 12.0 mph 59% 0.00 in 120 W/m2
09:20 22.1 °F 9.6 °F 30.33 in NW 6.0 mph 6.0 mph 58% 0.00 in 120 W/m2
09:26 21.9 °F 9.0 °F 30.33 in NW 6.0 mph 7.0 mph 57% 0.00 in 105 W/m2
09:32 22.8 °F 9.4 °F 30.33 in NW 5.0 mph 6.0 mph 56% 0.00 in 408 W/m2
09:38 23.7 °F 10.3 °F 30.34 in NW 6.0 mph 6.0 mph 56% 0.00 in 478 W/m2
09:44 24.2 °F 9.9 °F 30.34 in NW 6.0 mph 6.0 mph 54% 0.00 in 455 W/m2
09:50 22.7 °F 8.1 °F 30.34 in NW 7.0 mph 7.0 mph 53% 0.00 in 116 W/m2
09:56 22.9 °F 9.5 °F 30.35 in NNW 8.0 mph 11.0 mph 56% 0.00 in 519 W/m2
10:02 23.1 °F 8.9 °F 30.35 in WNW 7.0 mph 7.0 mph 54% 0.00 in 536 W/m2
10:08 23.7 °F 9.9 °F 30.35 in WNW 6.0 mph 9.0 mph 55% 0.00 in 515 W/m2
10:14 23.9 °F 9.6 °F 30.36 in West 5.0 mph 13.0 mph 54% 0.00 in 540 W/m2
10:20 25.0 °F 10.7 °F 30.36 in NW 5.0 mph 7.0 mph 54% 0.00 in 592 W/m2
10:26 24.6 °F 10.3 °F 30.36 in NW 4.0 mph 7.0 mph 54% 0.00 in 86 W/m2
10:32 24.0 °F 10.6 °F 30.37 in NNW 5.0 mph 5.0 mph 56% 0.00 in 603 W/m2
10:38 24.2 °F 9.5 °F 30.36 in WNW 5.0 mph 8.0 mph 53% 0.00 in 250 W/m2
10:44 23.8 °F 10.8 °F 30.37 in WNW 5.0 mph 8.0 mph 57% 0.00 in 258 W/m2
10:50 23.5 °F 10.1 °F 30.38 in North 5.0 mph 9.0 mph 56% 0.00 in 227 W/m2
10:56 23.1 °F 10.1 °F 30.38 in NNW 7.0 mph 12.0 mph 57% 0.00 in 190 W/m2
11:02 22.6 °F 10.0 °F 30.38 in NNW 6.0 mph 17.0 mph 58% 0.00 in 174 W/m2
11:08 22.4 °F 9.8 °F 30.38 in North 6.0 mph 17.0 mph 58% 0.00 in 188 W/m2
11:14 22.6 °F 10.4 °F 30.38 in NW 6.0 mph 7.0 mph 59% 0.00 in 229 W/m2
11:20 22.6 °F 10.4 °F 30.38 in NW 5.0 mph 5.0 mph 59% 0.00 in 169 W/m2
11:26 22.4 °F 10.6 °F 30.38 in NW 5.0 mph 6.0 mph 60% 0.00 in 158 W/m2
11:32 22.6 °F 10.8 °F 30.39 in NW 5.0 mph 7.0 mph 60% 0.00 in 265 W/m2
11:38 23.8 °F 11.5 °F 30.40 in NW 5.0 mph 7.0 mph 59% 0.00 in 707 W/m2
11:44 23.8 °F 11.2 °F 30.40 in NNW 5.0 mph 8.0 mph 58% 0.00 in 178 W/m2
11:50 23.4 °F 11.9 °F 30.40 in WNW 4.0 mph 5.0 mph 61% 0.00 in 179 W/m2
11:56 22.6 °F 10.4 °F 30.40 in NNW 5.0 mph 7.0 mph 59% 0.00 in 127 W/m2
12:02 22.3 °F 10.9 °F 30.40 in NNW 6.0 mph 6.0 mph 61% 0.00 in 172 W/m2
12:08 22.6 °F 11.2 °F 30.40 in WNW 4.0 mph 6.0 mph 61% 0.00 in 248 W/m2
12:14 22.6 °F 10.0 °F 30.40 in NW 5.0 mph 10.0 mph 58% 0.00 in 142 W/m2
12:20 22.3 °F 11.2 °F 30.40 in WNW 6.0 mph 6.0 mph 62% 0.00 in 123 W/m2
12:26 22.3 °F 12.0 °F 30.40 in NW 4.0 mph 6.0 mph 64% 0.00 in 171 W/m2
12:32 22.8 °F 12.1 °F 30.40 in NNW 4.0 mph 4.0 mph 63% 0.00 in 244 W/m2
12:38 23.0 °F 11.5 °F 30.40 in NW 4.0 mph 6.0 mph 61% 0.00 in 206 W/m2
12:44 23.0 °F 11.9 °F 30.40 in WNW 4.0 mph 7.0 mph 62% 0.00 in 171 W/m2
12:50 23.0 °F 12.3 °F 30.40 in WNW 4.0 mph 6.0 mph 63% 0.00 in 100 W/m2
12:56 22.6 °F 13.3 °F 30.40 in NNW 4.0 mph 8.0 mph 67% 0.00 in 211 W/m2
13:02 22.8 °F 13.5 °F 30.41 in NW 3.0 mph 4.0 mph 67% 0.00 in 113 W/m2
13:08 22.7 °F 13.0 °F 30.41 in NW 4.0 mph 4.0 mph 66% 0.00 in 232 W/m2
13:14 23.0 °F 13.0 °F 30.40 in NW 5.0 mph 5.0 mph 65% 0.00 in 213 W/m2
13:20 22.9 °F 12.2 °F 30.41 in NNW 5.0 mph 5.0 mph 63% 0.00 in 162 W/m2
13:26 23.4 °F 12.6 °F 30.41 in NW 5.0 mph 5.0 mph 63% 0.00 in 271 W/m2
13:32 23.6 °F 12.5 °F 30.41 in NW 4.0 mph 4.0 mph 62% 0.00 in 186 W/m2
13:38 23.4 °F 11.2 °F 30.41 in WNW 5.0 mph 7.0 mph 59% 0.00 in 98 W/m2
13:44 23.3 °F 11.8 °F 30.41 in WNW 5.0 mph 5.0 mph 61% 0.00 in 213 W/m2
13:50 23.5 °F 12.0 °F 30.41 in NNW 4.0 mph 4.0 mph 61% 0.00 in 142 W/m2
13:56 23.6 °F 11.4 °F 30.41 in NNW 3.0 mph 6.0 mph 59% 0.00 in 81 W/m2
14:02 23.4 °F 10.8 °F 30.41 in NW 4.0 mph 4.0 mph 58% 0.00 in 102 W/m2
14:08 25.0 °F 12.3 °F 30.41 in West 4.0 mph 7.0 mph 58% 0.00 in 503 W/m2
14:14 24.6 °F 11.5 °F 30.41 in NNE 4.0 mph 8.0 mph 57% 0.00 in 130 W/m2
14:20 24.5 °F 11.0 °F 30.41 in WNW 5.0 mph 5.0 mph 56% 0.00 in 401 W/m2
14:26 24.5 °F 11.0 °F 30.41 in WNW 4.0 mph 6.0 mph 56% 0.00 in 56 W/m2
14:32 23.7 °F 10.3 °F 30.42 in WNW 3.0 mph 4.0 mph 56% 0.00 in 125 W/m2
14:38 24.3 °F 11.6 °F 30.42 in NW 3.0 mph 4.0 mph 58% 0.00 in 468 W/m2
14:44 25.4 °F 11.0 °F 30.42 in WNW 3.0 mph 7.0 mph 54% 0.00 in 469 W/m2
14:50 24.9 °F 10.6 °F 30.42 in WNW 4.0 mph 4.0 mph 54% 0.00 in 120 W/m2
14:56 24.4 °F 10.9 °F 30.43 in WNW 4.0 mph 4.0 mph 56% 0.00 in 72 W/m2
15:02 24.8 °F 10.9 °F 30.43 in NW 4.0 mph 4.0 mph 55% 0.00 in 160 W/m2
15:08 24.7 °F 10.8 °F 30.43 in NNW 5.0 mph 5.0 mph 55% 0.00 in 91 W/m2
15:14 25.0 °F 11.5 °F 30.43 in West 4.0 mph 4.0 mph 56% 0.00 in 111 W/m2
15:20 24.7 °F 11.2 °F 30.43 in NNW 3.0 mph 9.0 mph 56% 0.00 in 88 W/m2
15:26 24.4 °F 10.5 °F 30.43 in NW 4.0 mph 9.0 mph 55% 0.00 in 76 W/m2
15:32 24.3 °F 10.8 °F 30.43 in WNW 4.0 mph 5.0 mph 56% 0.00 in 69 W/m2
15:38 24.2 °F 11.1 °F 30.44 in NW 4.0 mph 9.0 mph 57% 0.00 in 70 W/m2
15:44 24.3 °F 11.6 °F 30.44 in NW 4.0 mph 5.0 mph 58% 0.00 in 60 W/m2
15:50 24.3 °F 11.6 °F 30.44 in NW 4.0 mph 4.0 mph 58% 0.00 in 60 W/m2
15:56 24.4 °F 12.1 °F 30.44 in WNW 4.0 mph 4.0 mph 59% 0.00 in 47 W/m2
16:02 24.3 °F 12.0 °F 30.44 in NW 3.0 mph 4.0 mph 59% 0.00 in 42 W/m2
16:08 24.3 °F 11.6 °F 30.45 in WNW 3.0 mph 8.0 mph 58% 0.00 in 28 W/m2
16:14 24.1 °F 11.4 °F 30.45 in WNW 3.0 mph 3.0 mph 58% 0.00 in 26 W/m2
16:20 23.9 °F 11.3 °F 30.45 in WNW 4.0 mph 4.0 mph 58% 0.00 in 16 W/m2
16:26 23.9 °F 11.6 °F 30.45 in NW 4.0 mph 5.0 mph 59% 0.00 in 16 W/m2
16:32 23.9 °F 12.0 °F 30.45 in WNW 3.0 mph 4.0 mph 60% 0.00 in 7 W/m2
16:38 23.9 °F 12.4 °F 30.45 in NW 3.0 mph 4.0 mph 61% 0.00 in 7 W/m2
16:44 24.0 °F 12.5 °F 30.45 in WNW 2.0 mph 3.0 mph 61% 0.00 in 5 W/m2
16:50 23.9 °F 12.0 °F 30.45 in WNW 3.0 mph 3.0 mph 60% 0.00 in 0 W/m2
16:56 23.9 °F 12.0 °F 30.45 in WNW 3.0 mph 4.0 mph 60% 0.00 in 0 W/m2
17:02 23.9 °F 12.0 °F 30.45 in WNW 3.0 mph 3.0 mph 60% 0.00 in 0 W/m2
17:08 24.0 °F 12.1 °F 30.45 in WNW 3.0 mph 3.0 mph 60% 0.00 in 0 W/m2
17:14 24.0 °F 12.1 °F 30.45 in NW 2.0 mph 5.0 mph 60% 0.00 in 0 W/m2
17:20 24.1 °F 12.6 °F 30.45 in WNW 2.0 mph 3.0 mph 61% 0.00 in 0 W/m2
17:26 24.0 °F 12.5 °F 30.45 in WNW 2.0 mph 3.0 mph 61% 0.00 in 0 W/m2
17:32 24.0 °F 12.9 °F 30.46 in WNW 1.0 mph 3.0 mph 62% 0.00 in 0 W/m2
17:38 24.0 °F 12.9 °F 30.46 in NW 1.0 mph 7.0 mph 62% 0.00 in 0 W/m2
17:44 24.1 °F 12.9 °F 30.46 in WNW 2.0 mph 2.0 mph 62% 0.00 in 0 W/m2
17:50 24.2 °F 13.0 °F 30.46 in WNW 2.0 mph 2.0 mph 62% 0.00 in 0 W/m2
17:56 24.3 °F 13.5 °F 30.46 in NNW 1.0 mph 5.0 mph 63% 0.00 in 0 W/m2
18:02 24.4 °F 14.0 °F 30.47 in NNW 1.0 mph 1.0 mph 64% 0.00 in 0 W/m2
18:08 24.5 °F 14.1 °F 30.47 in NNW 1.0 mph 4.0 mph 64% 0.00 in 0 W/m2
18:14 24.5 °F 14.1 °F 30.48 in WNW 2.0 mph 5.0 mph 64% 0.00 in 0 W/m2
18:20 24.6 °F 14.1 °F 30.48 in WNW 2.0 mph 2.0 mph 64% 0.00 in 0 W/m2
18:26 24.6 °F 14.1 °F 30.48 in WNW 1.0 mph 2.0 mph 64% 0.00 in 0 W/m2
18:32 24.8 °F 14.3 °F 30.48 in NNW 1.0 mph 4.0 mph 64% 0.00 in 0 W/m2
18:38 25.0 °F 14.5 °F 30.48 in NW 2.0 mph 6.0 mph 64% 0.00 in 0 W/m2
18:44 25.1 °F 14.3 °F 30.48 in NW 2.0 mph 4.0 mph 63% 0.00 in 0 W/m2
18:50 25.2 °F 13.6 °F 30.48 in WNW 3.0 mph 3.0 mph 61% 0.00 in 0 W/m2
18:56 25.2 °F 13.6 °F 30.49 in NW 2.0 mph 4.0 mph 61% 0.00 in 0 W/m2
19:02 25.0 °F 13.4 °F 30.49 in NW 2.0 mph 2.0 mph 61% 0.00 in 0 W/m2
19:08 24.7 °F 13.1 °F 30.49 in NW 2.0 mph 5.0 mph 61% 0.00 in 0 W/m2
19:14 24.6 °F 12.7 °F 30.50 in NNW 2.0 mph 4.0 mph 60% 0.00 in 0 W/m2
19:20 24.5 °F 12.6 °F 30.50 in NW 3.0 mph 3.0 mph 60% 0.00 in 0 W/m2
19:26 24.4 °F 12.5 °F 30.50 in NW 3.0 mph 3.0 mph 60% 0.00 in 0 W/m2
19:32 24.3 °F 12.0 °F 30.50 in NNW 2.0 mph 3.0 mph 59% 0.00 in 0 W/m2
19:38 24.2 °F 12.3 °F 30.50 in NNW 3.0 mph 3.0 mph 60% 0.00 in 0 W/m2
19:44 24.2 °F 12.3 °F 30.50 in NW 2.0 mph 3.0 mph 60% 0.00 in 0 W/m2
19:50 23.9 °F 12.0 °F 30.50 in NW 1.0 mph 6.0 mph 60% 0.00 in 0 W/m2
19:56 23.7 °F 11.8 °F 30.50 in NNW 2.0 mph 6.0 mph 60% 0.00 in 0 W/m2
20:02 23.6 °F 11.7 °F 30.51 in WNW 2.0 mph 3.0 mph 60% 0.00 in 0 W/m2
20:08 23.6 °F 11.7 °F 30.51 in NW 2.0 mph 3.0 mph 60% 0.00 in 0 W/m2
20:14 23.6 °F 11.7 °F 30.51 in NW 3.0 mph 3.0 mph 60% 0.00 in 0 W/m2
20:20 23.6 °F 12.1 °F 30.51 in NW 3.0 mph 4.0 mph 61% 0.00 in 0 W/m2
20:26 23.6 °F 12.5 °F 30.51 in NW 2.0 mph 4.0 mph 62% 0.00 in 0 W/m2
20:32 23.8 °F 12.7 °F 30.51 in North 1.0 mph 2.0 mph 62% 0.00 in 0 W/m2
20:38 23.9 °F 12.4 °F 30.51 in NNW 2.0 mph 4.0 mph 61% 0.00 in 0 W/m2
20:44 24.1 °F 12.2 °F 30.51 in WNW 3.0 mph 5.0 mph 60% 0.00 in 0 W/m2
20:50 24.2 °F 12.3 °F 30.51 in NW 3.0 mph 4.0 mph 60% 0.00 in 0 W/m2
20:56 24.3 °F 12.4 °F 30.51 in NNW 4.0 mph 7.0 mph 60% 0.00 in 0 W/m2
21:02 24.3 °F 12.4 °F 30.51 in NW 3.0 mph 4.0 mph 60% 0.00 in 0 W/m2
21:08 24.3 °F 12.4 °F 30.52 in NW 2.0 mph 4.0 mph 60% 0.00 in 0 W/m2
21:14 24.2 °F 12.3 °F 30.52 in NW 2.0 mph 4.0 mph 60% 0.00 in 0 W/m2
21:20 24.1 °F 11.8 °F 30.52 in WNW 3.0 mph 6.0 mph 59% 0.00 in 0 W/m2
21:26 24.0 °F 12.1 °F 30.52 in WNW 3.0 mph 6.0 mph 60% 0.00 in 0 W/m2
21:32 24.1 °F 12.2 °F 30.52 in WNW 3.0 mph 4.0 mph 60% 0.00 in 0 W/m2
21:38 24.2 °F 12.3 °F 30.52 in WNW 3.0 mph 6.0 mph 60% 0.00 in 0 W/m2
21:44 24.2 °F 12.3 °F 30.52 in NW 3.0 mph 4.0 mph 60% 0.00 in 0 W/m2
21:50 24.3 °F 12.8 °F 30.52 in NW 2.0 mph 4.0 mph 61% 0.00 in 0 W/m2
21:56 24.3 °F 12.8 °F 30.52 in WNW 3.0 mph 7.0 mph 61% 0.00 in 0 W/m2
22:02 24.3 °F 13.5 °F 30.52 in West 3.0 mph 5.0 mph 63% 0.00 in 0 W/m2
22:08 24.2 °F 13.4 °F 30.52 in NW 4.0 mph 5.0 mph 63% 0.00 in 0 W/m2
22:18 24.2 °F 13.8 °F 30.53 in West 2.0 mph 3.0 mph 64% 0.00 in 0 W/m2
22:26 24.2 °F 14.5 °F 30.53 in NNW 2.0 mph 4.0 mph 66% 0.00 in 0 W/m2
22:30 24.2 °F 14.8 °F 30.53 in NW 3.0 mph 3.0 mph 67% 0.00 in 0 W/m2
22:36 24.1 °F 14.7 °F 30.53 in NW 2.0 mph 3.0 mph 67% 0.00 in 0 W/m2
22:42 24.1 °F 15.1 °F 30.53 in NW 1.0 mph 2.0 mph 68% 0.00 in 0 W/m2
22:48 24.2 °F 15.2 °F 30.53 in Calm   2.0 mph 68% 0.00 in 0 W/m2
22:54 24.2 °F 15.5 °F 30.53 in NW 1.0 mph 3.0 mph 69% 0.00 in 0 W/m2
23:00 24.2 °F 15.8 °F 30.53 in NW 1.0 mph 2.0 mph 70% 0.00 in 0 W/m2
23:06 24.1 °F 15.7 °F 30.53 in NW 3.0 mph 8.0 mph 70% 0.00 in 0 W/m2
23:12 24.0 °F 16.0 °F 30.53 in NNW 2.0 mph 6.0 mph 71% 0.00 in 0 W/m2
23:18 24.0 °F 16.3 °F 30.53 in NW 2.0 mph 6.0 mph 72% 0.00 in 0 W/m2
23:24 24.0 °F 16.6 °F 30.53 in NW 2.0 mph 2.0 mph 73% 0.00 in 0 W/m2
23:30 24.0 °F 16.9 °F 30.53 in NW 1.0 mph 3.0 mph 74% 0.00 in 0 W/m2
23:36 23.9 °F 16.8 °F 30.53 in NW 2.0 mph 3.0 mph 74% 0.00 in 0 W/m2
23:42 23.8 °F 17.0 °F 30.53 in NNW 2.0 mph 2.0 mph 75% 0.00 in 0 W/m2
23:48 23.7 °F 17.5 °F 30.53 in NNW 2.0 mph 2.0 mph 77% 0.00 in 0 W/m2
23:54 23.6 °F 17.4 °F 30.53 in NNW 1.0 mph 2.0 mph 77% 0.00 in 0 W/m2
Country Meadow, Clay, NY, USA
Compliments of Weather Underground - 2 mb